createdAt,value
2023-05-06T11:01:55.939Z,70.40
2023-05-06T11:03:28.064Z,71.80
2023-05-06T11:05:00.399Z,68.80
2023-05-06T11:06:44.679Z,69.40
2023-05-06T11:08:22.443Z,71.25
2023-05-06T11:10:01.124Z,66.40
2023-05-06T11:11:53.030Z,69.80
2023-05-06T11:13:29.196Z,58.80
2023-05-06T11:15:38.039Z,66.00
2023-05-06T11:17:28.854Z,67.75
2023-05-06T11:19:00.756Z,65.00
2023-05-06T11:20:32.702Z,71.00
2023-05-06T11:22:05.611Z,63.80
2023-05-06T11:23:47.088Z,58.40
2023-05-06T11:25:41.576Z,66.00
2023-05-06T11:27:16.736Z,67.40
2023-05-06T11:28:49.731Z,86.00
2023-05-06T11:30:21.693Z,82.75
2023-05-06T11:31:54.423Z,83.50
2023-05-06T11:33:26.289Z,71.00
2023-05-06T11:34:58.183Z,80.25
2023-05-06T11:36:29.986Z,71.60
2023-05-06T11:38:01.989Z,69.20
2023-05-06T11:39:39.883Z,62.75
2023-05-06T11:41:13.102Z,63.80
2023-05-06T11:42:44.966Z,74.20
2023-05-06T11:44:34.160Z,77.20
2023-05-06T11:46:06.598Z,58.50
2023-05-06T11:47:38.581Z,57.50
2023-05-06T11:49:13.718Z,61.00
2023-05-06T11:50:48.890Z,58.75
2023-05-06T11:52:23.517Z,53.25
2023-05-06T11:54:07.084Z,45.25
2023-05-06T11:55:39.257Z,40.75
2023-05-06T11:57:11.800Z,34.75
2023-05-06T11:58:44.265Z,39.50
2023-05-06T12:00:16.417Z,39.25
2023-05-06T12:01:48.858Z,46.25
2023-05-06T12:03:21.261Z,40.00
2023-05-06T12:04:53.837Z,42.00
2023-05-06T12:06:35.330Z,50.25
2023-05-06T12:08:16.365Z,43.50
2023-05-06T12:09:55.882Z,45.00
2023-05-06T12:11:27.901Z,53.00
2023-05-06T12:12:59.891Z,49.50
2023-05-06T12:14:32.223Z,48.75
2023-05-06T12:16:04.321Z,52.50
2023-05-06T12:17:36.330Z,52.25
2023-05-06T12:19:08.228Z,52.75
2023-05-06T12:20:40.155Z,49.50
2023-05-06T12:22:22.082Z,52.50
2023-05-06T12:23:59.535Z,55.75
2023-05-06T12:25:31.470Z,50.50
2023-05-06T12:27:03.351Z,49.00
2023-05-06T12:28:36.268Z,54.25
2023-05-06T12:30:09.566Z,50.25
2023-05-06T12:31:41.819Z,46.75
2023-05-06T12:33:13.802Z,53.75
2023-05-06T12:34:45.712Z,51.25
2023-05-06T12:36:20.760Z,57.75
2023-05-06T12:37:52.688Z,65.00
2023-05-06T12:39:34.149Z,62.75
2023-05-06T12:41:07.856Z,62.25
2023-05-06T12:42:39.800Z,62.00
2023-05-06T12:44:31.531Z,66.75
2023-05-06T12:46:07.382Z,66.00
2023-05-06T12:47:39.483Z,64.00
2023-05-06T12:49:11.406Z,62.50
2023-05-06T12:50:46.522Z,65.00
2023-05-06T12:52:22.871Z,65.20
2023-05-06T12:53:54.933Z,65.60
2023-05-06T12:55:27.013Z,63.20
2023-05-06T12:56:58.890Z,64.00
2023-05-06T12:58:30.973Z,64.00
2023-05-06T13:00:02.982Z,69.60
2023-05-06T13:01:35.677Z,72.00
2023-05-06T13:03:07.818Z,65.80
2023-05-06T13:04:39.998Z,72.25
2023-05-06T13:06:12.607Z,78.00
2023-05-06T13:07:44.486Z,76.00
2023-05-06T13:09:16.404Z,76.25
2023-05-06T13:10:48.274Z,76.00
2023-05-06T13:12:20.189Z,80.25
2023-05-06T13:13:52.124Z,81.50
2023-05-06T13:15:24.526Z,79.75
2023-05-06T13:16:56.427Z,83.00
2023-05-06T13:18:28.850Z,86.00
2023-05-06T13:20:01.859Z,77.25
2023-05-06T13:21:34.682Z,75.75
2023-05-06T13:23:06.533Z,87.75
2023-05-06T13:24:38.530Z,81.00
2023-05-06T13:26:10.427Z,80.25
2023-05-06T13:27:42.323Z,89.50
2023-05-06T13:29:14.312Z,79.25
2023-05-06T13:30:46.262Z,80.00
2023-05-06T13:32:18.207Z,74.50
2023-05-06T13:33:50.242Z,81.75
2023-05-06T13:35:22.046Z,85.25
2023-05-06T13:36:54.877Z,76.75
2023-05-06T13:38:26.755Z,82.75
2023-05-06T13:39:58.637Z,83.75
2023-05-06T13:41:30.557Z,79.25
2023-05-06T13:43:02.498Z,98.75
2023-05-06T13:44:34.323Z,75.25
2023-05-06T13:46:06.475Z,84.50
2023-05-06T13:47:38.423Z,85.50
2023-05-06T13:49:10.414Z,88.50
2023-05-06T13:50:42.825Z,82.25
2023-05-06T13:52:14.672Z,77.25
2023-05-06T13:53:46.589Z,79.00
2023-05-06T13:55:19.552Z,69.20
2023-05-06T13:56:51.526Z,65.80
2023-05-06T13:58:23.430Z,72.60
2023-05-06T13:59:55.417Z,68.00
2023-05-06T14:01:27.390Z,67.20
2023-05-06T14:02:59.325Z,66.40
2023-05-06T14:04:31.497Z,70.00
2023-05-06T14:06:03.461Z,70.00
2023-05-06T14:07:35.315Z,72.00
2023-05-06T14:09:07.541Z,71.40
2023-05-06T14:10:39.477Z,68.60
2023-05-06T14:12:11.465Z,75.50
2023-05-06T14:13:43.363Z,80.50
2023-05-06T14:15:15.385Z,77.00
2023-05-06T14:16:47.707Z,80.50
2023-05-06T14:18:19.628Z,86.25
2023-05-06T14:19:51.506Z,84.25
2023-05-06T14:21:23.425Z,85.00
2023-05-06T14:22:55.351Z,86.50
2023-05-06T14:24:27.231Z,87.25
2023-05-06T14:25:59.079Z,95.25
2023-05-06T14:27:31.244Z,86.50
2023-05-06T14:29:03.132Z,86.00
2023-05-06T14:30:35.868Z,88.50
2023-05-06T14:32:07.879Z,89.00
2023-05-06T14:33:39.779Z,91.25
2023-05-06T14:35:11.913Z,95.50
2023-05-06T14:36:44.102Z,93.00
2023-05-06T14:38:16.045Z,84.50
2023-05-06T14:39:48.021Z,91.00
2023-05-06T14:41:19.966Z,88.50
2023-05-06T14:42:53.656Z,93.25
2023-05-06T14:44:25.607Z,90.00
2023-05-06T14:45:57.474Z,88.75
2023-05-06T14:47:29.349Z,88.50
2023-05-06T14:49:01.180Z,87.00
2023-05-06T14:50:33.118Z,91.50
2023-05-06T14:52:05.070Z,84.00
2023-05-06T14:53:37.032Z,90.25
2023-05-06T14:55:09.793Z,89.00
2023-05-06T14:56:42.355Z,81.00
2023-05-06T14:58:14.240Z,79.50
2023-05-06T14:59:46.409Z,78.50
2023-05-06T15:01:18.340Z,86.75
2023-05-06T15:02:50.309Z,82.75
2023-05-06T15:04:22.280Z,79.00
2023-05-06T15:05:54.203Z,79.00
2023-05-06T15:07:26.235Z,80.75
2023-05-06T15:08:58.189Z,82.75
2023-05-06T15:10:29.997Z,82.00
2023-05-06T15:12:02.081Z,83.25
2023-05-06T15:13:33.942Z,79.25
2023-05-06T15:15:06.680Z,80.25
2023-05-06T15:16:38.640Z,77.75
2023-05-06T15:18:10.892Z,90.75
2023-05-06T15:19:42.798Z,79.50
2023-05-06T15:21:14.817Z,89.50
2023-05-06T15:22:46.664Z,77.75
2023-05-06T15:24:18.749Z,79.25
2023-05-06T15:25:51.202Z,82.75
2023-05-06T15:27:23.109Z,92.50
2023-05-06T15:28:54.917Z,80.75
2023-05-06T15:30:26.881Z,86.50
2023-05-06T15:31:58.889Z,76.25
2023-05-06T15:33:30.861Z,82.00
2023-05-06T15:35:05.058Z,83.75
2023-05-06T15:36:37.408Z,77.25
2023-05-06T15:38:09.267Z,78.50
2023-05-06T15:39:41.298Z,77.75
2023-05-06T15:41:13.118Z,81.50
2023-05-06T15:42:45.102Z,85.25
2023-05-06T15:44:17.245Z,90.50
2023-05-06T15:45:49.215Z,82.50
2023-05-06T15:47:21.427Z,85.25
2023-05-06T15:49:09.056Z,85.00
2023-05-06T15:50:45.205Z,85.75
2023-05-06T15:52:17.067Z,85.00
2023-05-06T15:53:48.993Z,84.75
2023-05-06T15:55:21.007Z,89.00
2023-05-06T15:56:52.817Z,89.25
2023-05-06T15:58:24.761Z,75.25
2023-05-06T15:59:57.009Z,89.00
2023-05-06T16:01:54.093Z,88.25
2023-05-06T16:03:21.178Z,81.75
2023-05-06T16:04:53.536Z,85.50
2023-05-06T16:06:25.996Z,81.50
2023-05-06T16:07:57.876Z,81.75
2023-05-06T16:09:29.970Z,86.00
2023-05-06T16:11:01.851Z,84.50
2023-05-06T16:12:33.907Z,83.00
2023-05-06T16:14:06.173Z,83.00
2023-05-06T16:15:38.089Z,82.00
2023-05-06T16:17:09.963Z,87.75
2023-05-06T16:18:41.816Z,76.00
2023-05-06T16:20:13.871Z,80.75
2023-05-06T16:21:45.910Z,79.00
2023-05-06T16:23:19.478Z,80.25
2023-05-06T16:24:51.365Z,76.75
2023-05-06T16:26:23.277Z,88.75
2023-05-06T16:27:56.088Z,84.75
2023-05-06T16:29:28.165Z,87.75
2023-05-06T16:31:02.267Z,85.25
2023-05-06T16:32:34.312Z,79.75
2023-05-06T16:34:06.349Z,85.50
2023-05-06T16:35:38.289Z,95.00
2023-05-06T16:37:10.133Z,83.75
2023-05-06T16:38:42.057Z,85.50
2023-05-06T16:40:14.796Z,85.75
2023-05-06T16:41:46.875Z,91.00
2023-05-06T16:43:19.078Z,87.50
2023-05-06T16:44:51.694Z,85.50
2023-05-06T16:46:24.708Z,114.50
2023-05-06T16:47:56.797Z,106.75
2023-05-06T16:49:28.748Z,109.75
2023-05-06T16:51:00.734Z,94.50
2023-05-06T16:52:32.638Z,92.75
2023-05-06T16:54:04.639Z,89.25
2023-05-06T16:55:36.700Z,93.00
2023-05-06T16:57:08.609Z,93.50
2023-05-06T16:58:40.568Z,87.75
2023-05-06T17:00:13.889Z,95.75
2023-05-06T17:01:45.873Z,91.75
2023-05-06T17:03:17.762Z,94.75
2023-05-06T17:04:49.634Z,88.25
2023-05-06T17:06:22.197Z,94.75
2023-05-06T17:07:54.057Z,92.75
2023-05-06T17:09:25.987Z,91.50
2023-05-06T17:10:57.835Z,93.75
2023-05-06T17:12:29.787Z,85.25
2023-05-06T17:14:01.603Z,89.50
2023-05-06T17:15:33.448Z,92.25
2023-05-06T17:17:05.737Z,89.50
2023-05-06T17:18:37.788Z,97.00
2023-05-06T17:20:10.193Z,97.75
2023-05-06T17:21:42.636Z,91.00
2023-05-06T17:23:15.120Z,94.50
2023-05-06T17:24:47.126Z,98.00
2023-05-06T17:26:19.050Z,94.50
2023-05-06T17:27:51.052Z,95.50
2023-05-06T17:29:22.909Z,95.75
2023-05-06T17:30:54.904Z,93.25
2023-05-06T17:32:26.838Z,94.50
2023-05-06T17:33:58.766Z,95.25
2023-05-06T17:35:30.621Z,102.00
2023-05-06T17:37:04.621Z,101.00
2023-05-06T17:38:36.646Z,95.25
2023-05-06T17:40:08.979Z,96.50
2023-05-06T17:41:41.035Z,102.00
2023-05-06T17:43:12.949Z,95.00
2023-05-06T17:44:44.846Z,97.75
2023-05-06T17:46:19.693Z,103.00
2023-05-06T17:47:51.705Z,101.50
2023-05-06T17:49:23.640Z,100.50
2023-05-06T17:51:00.692Z,100.00
2023-05-06T17:52:32.551Z,96.75
2023-05-06T17:54:04.500Z,104.00
2023-05-06T17:55:36.452Z,99.50
2023-05-06T17:57:08.322Z,99.25
2023-05-06T17:58:40.225Z,102.00
2023-05-06T18:00:12.545Z,126.00
2023-05-06T18:01:46.638Z,99.75
2023-05-06T18:03:18.641Z,111.50
2023-05-06T18:04:50.570Z,105.25
2023-05-06T18:06:22.472Z,96.00
2023-05-06T18:07:54.391Z,93.25
2023-05-06T18:09:26.294Z,93.00
2023-05-06T18:10:58.282Z,106.50
2023-05-06T18:12:30.926Z,93.75
2023-05-06T18:14:02.819Z,96.50
2023-05-06T18:15:34.698Z,97.50
2023-05-06T18:17:06.528Z,98.50
2023-05-06T18:18:38.479Z,102.75
2023-05-06T18:20:10.978Z,115.25
2023-05-06T18:21:42.886Z,120.00
2023-05-06T18:23:14.753Z,112.75
2023-05-06T18:24:46.880Z,106.00
2023-05-06T18:26:31.716Z,104.00
2023-05-06T18:28:11.055Z,109.75
2023-05-06T18:29:42.879Z,105.75
2023-05-06T18:31:14.936Z,102.00
2023-05-06T18:32:48.243Z,102.75
2023-05-06T18:34:22.011Z,103.00
2023-05-06T18:35:53.826Z,101.25
2023-05-06T18:37:27.657Z,100.50
2023-05-06T18:38:59.556Z,98.00
2023-05-06T18:40:31.595Z,103.25
2023-05-06T18:42:04.040Z,101.75
2023-05-06T18:43:35.928Z,101.00
2023-05-06T18:45:08.730Z,106.00
2023-05-06T18:46:40.968Z,115.00
2023-05-06T18:48:12.802Z,122.50
2023-05-06T18:49:44.851Z,137.00
2023-05-06T18:51:17.408Z,125.33
2023-05-06T18:52:49.401Z,109.50
2023-05-06T18:54:21.357Z,104.25
2023-05-06T18:55:53.294Z,106.50
2023-05-06T18:57:26.844Z,101.25
2023-05-06T18:58:58.728Z,107.00
2023-05-06T19:00:30.850Z,102.00
2023-05-06T19:02:03.831Z,105.25
2023-05-06T19:03:36.615Z,98.75
2023-05-06T19:05:09.183Z,102.75
2023-05-06T19:06:41.290Z,98.00
2023-05-06T19:08:13.928Z,104.50
2023-05-06T19:09:45.818Z,90.50
2023-05-06T19:11:19.308Z,92.25
2023-05-06T19:12:51.632Z,95.00
2023-05-06T19:14:24.981Z,98.75
2023-05-06T19:15:57.457Z,102.50
2023-05-06T19:17:29.374Z,98.50
2023-05-06T19:19:02.928Z,92.25
2023-05-06T19:20:34.816Z,96.00
2023-05-06T19:22:06.637Z,92.50
2023-05-06T19:23:38.602Z,112.25
2023-05-06T19:25:11.308Z,95.50
2023-05-06T19:26:43.357Z,95.25
2023-05-06T19:28:15.247Z,94.50
2023-05-06T19:29:48.379Z,94.75
2023-05-06T19:31:20.307Z,93.00
2023-05-06T19:32:52.328Z,97.25
2023-05-06T19:34:24.786Z,92.25
2023-05-06T19:35:56.671Z,87.00
2023-05-06T19:37:30.337Z,90.25
2023-05-06T19:39:02.311Z,89.25
2023-05-06T19:40:35.388Z,95.75
2023-05-06T19:42:07.304Z,86.00
2023-05-06T19:43:43.124Z,93.50
2023-05-06T19:45:16.718Z,92.00
2023-05-06T19:46:53.254Z,91.25
2023-05-06T19:48:25.212Z,90.25
2023-05-06T19:49:57.282Z,92.00
2023-05-06T19:51:29.243Z,97.50
2023-05-06T19:53:01.107Z,96.25
2023-05-06T19:54:32.996Z,93.75
2023-05-06T19:56:11.750Z,92.00
2023-05-06T19:57:43.720Z,96.75
2023-05-06T19:59:17.646Z,89.75
2023-05-06T20:00:49.774Z,93.75
2023-05-06T20:02:21.783Z,89.00
2023-05-06T20:03:55.247Z,93.00
2023-05-06T20:05:30.965Z,85.75
2023-05-06T20:07:02.822Z,92.00
2023-05-06T20:08:35.608Z,86.00
2023-05-06T20:10:10.038Z,87.00
2023-05-06T20:11:41.942Z,87.50
2023-05-06T20:13:13.849Z,82.75
2023-05-06T20:14:46.031Z,85.00
2023-05-06T20:16:18.066Z,90.00
2023-05-06T20:17:49.969Z,88.25
2023-05-06T20:19:22.694Z,89.25
2023-05-06T20:20:54.587Z,88.25
2023-05-06T20:22:26.583Z,89.50
2023-05-06T20:23:58.454Z,115.25
2023-05-06T20:25:30.519Z,129.00
2023-05-06T20:27:02.531Z,104.25
2023-05-06T20:28:37.865Z,95.75
2023-05-06T20:30:09.951Z,96.25
2023-05-06T20:31:41.891Z,87.00
2023-05-06T20:33:13.786Z,98.00
2023-05-06T20:34:45.787Z,95.25
2023-05-06T20:36:17.656Z,144.33
2023-05-06T20:37:49.506Z,130.00
2023-05-06T20:39:22.218Z,121.00
2023-05-06T20:40:54.148Z,109.25
2023-05-06T20:42:26.008Z,113.25
2023-05-06T20:43:57.903Z,104.75
2023-05-06T20:45:31.292Z,105.75
2023-05-06T20:47:03.802Z,94.50
2023-05-06T20:48:35.712Z,98.50
2023-05-06T20:50:07.780Z,95.00
2023-05-06T20:51:39.705Z,95.75
2023-05-06T20:53:11.821Z,90.50
2023-05-06T20:54:44.006Z,92.50
2023-05-06T20:56:21.004Z,89.25
2023-05-06T20:57:52.936Z,90.50
2023-05-06T20:59:25.091Z,88.25
2023-05-06T21:00:57.716Z,87.00
2023-05-06T21:02:32.923Z,90.00
2023-05-06T21:04:06.575Z,85.00
2023-05-06T21:05:38.448Z,84.75
2023-05-06T21:07:10.318Z,88.00
2023-05-06T21:08:43.155Z,83.25
2023-05-06T21:10:15.136Z,85.00
2023-05-06T21:11:46.958Z,85.00
2023-05-06T21:13:18.843Z,81.80
2023-05-06T21:14:50.711Z,83.50
2023-05-06T21:16:22.639Z,83.75
2023-05-06T21:17:54.620Z,88.75
2023-05-06T21:19:26.516Z,88.00
2023-05-06T21:20:58.369Z,81.00
2023-05-06T21:22:30.252Z,73.75
2023-05-06T21:24:02.160Z,81.25
2023-05-06T21:25:33.999Z,67.00
2023-05-06T21:27:05.993Z,86.25
2023-05-06T21:28:37.992Z,81.25
2023-05-06T21:30:10.632Z,81.00
2023-05-06T21:31:42.486Z,83.50
2023-05-06T21:33:14.401Z,85.00
2023-05-06T21:34:46.364Z,73.25
2023-05-06T21:36:18.219Z,77.75
2023-05-06T21:37:50.980Z,75.00
2023-05-06T21:39:22.892Z,81.00
2023-05-06T21:40:55.925Z,76.00
2023-05-06T21:42:27.833Z,73.50
2023-05-06T21:43:59.688Z,77.80
2023-05-06T21:45:31.548Z,79.40
2023-05-06T21:47:03.426Z,79.25
2023-05-06T21:48:35.279Z,78.00
2023-05-06T21:50:07.586Z,81.25
2023-05-06T21:51:39.441Z,75.00
2023-05-06T21:53:11.373Z,79.50
2023-05-06T21:54:46.172Z,77.75
2023-05-06T21:56:18.474Z,77.75
2023-05-06T21:57:50.493Z,81.25
2023-05-06T21:59:22.328Z,77.00
2023-05-06T22:00:54.185Z,79.50
2023-05-06T22:02:26.354Z,74.75
2023-05-06T22:03:58.374Z,79.50
2023-05-06T22:05:30.314Z,74.00
2023-05-06T22:07:02.272Z,71.75
2023-05-06T22:08:34.128Z,80.20
2023-05-06T22:10:06.587Z,79.40
2023-05-06T22:11:38.715Z,73.50
2023-05-06T22:13:11.149Z,75.20
2023-05-06T22:14:43.045Z,78.25
2023-05-06T22:16:14.966Z,79.20
2023-05-06T22:17:46.912Z,70.40
2023-05-06T22:19:19.358Z,69.20
2023-05-06T22:20:52.552Z,61.20
2023-05-06T22:22:24.416Z,66.20
2023-05-06T22:23:56.452Z,68.60
2023-05-06T22:25:28.279Z,70.40
2023-05-06T22:27:00.161Z,66.40
2023-05-06T22:28:32.004Z,72.60
2023-05-06T22:30:04.239Z,75.20
2023-05-06T22:31:36.219Z,74.40
2023-05-06T22:33:08.161Z,68.40
2023-05-06T22:34:40.519Z,73.20
